createdAt,value
2023-01-08T00:01:18.862Z,100997.06
2023-01-08T00:03:49.557Z,100988.91
2023-01-08T00:06:22.169Z,100993.78
2023-01-08T00:08:52.787Z,101003.69
2023-01-08T00:11:23.306Z,100994.72
2023-01-08T00:13:53.858Z,100996.16
2023-01-08T00:16:26.080Z,100994.59
2023-01-08T00:18:56.615Z,100971.56
2023-01-08T00:21:27.426Z,100993.28
2023-01-08T00:23:58.179Z,100992.63
2023-01-08T00:26:28.783Z,100987.84
2023-01-08T00:28:59.345Z,100990.72
2023-01-08T00:31:31.620Z,100987.34
2023-01-08T00:34:03.507Z,100985.97
2023-01-08T00:36:34.819Z,100899.00
2023-01-08T00:39:05.403Z,100977.47
2023-01-08T00:41:36.328Z,100983.38
2023-01-08T00:44:07.128Z,100964.03
2023-01-08T00:46:39.569Z,100944.50
2023-01-08T00:49:10.706Z,100975.28
2023-01-08T00:51:41.367Z,100964.94
2023-01-08T00:54:13.409Z,100963.25
2023-01-08T00:57:19.927Z,100967.63
2023-01-08T00:59:50.829Z,100955.91
2023-01-08T01:02:23.247Z,100958.56
2023-01-08T01:04:54.525Z,100960.78
2023-01-08T01:07:25.386Z,100956.03
2023-01-08T01:09:56.591Z,100952.00
2023-01-08T01:12:28.198Z,100955.53
2023-01-08T01:15:02.473Z,100952.47
2023-01-08T01:17:35.937Z,100933.94
2023-01-08T01:20:07.143Z,100926.94
2023-01-08T01:22:38.665Z,100932.03
2023-01-08T01:25:10.512Z,100931.75
2023-01-08T01:27:41.282Z,100922.28
2023-01-08T01:30:12.982Z,100929.03
2023-01-08T01:32:45.487Z,100927.75
2023-01-08T01:35:16.333Z,100911.09
2023-01-08T01:37:49.100Z,100917.00
2023-01-08T01:40:20.165Z,100908.41
2023-01-08T01:42:51.383Z,100915.31
2023-01-08T01:45:24.308Z,100799.06
2023-01-08T01:48:01.077Z,100890.31
2023-01-08T01:50:35.074Z,100884.03
2023-01-08T01:53:09.215Z,100862.78
2023-01-08T01:55:43.364Z,100888.75
2023-01-08T01:58:18.556Z,100845.06
2023-01-08T02:00:49.771Z,100894.69
2023-01-08T02:03:26.143Z,100882.53
2023-01-08T02:06:03.923Z,100873.00
2023-01-08T02:08:45.144Z,100869.88
2023-01-08T02:11:20.957Z,100832.72
2023-01-08T02:13:58.934Z,100872.56
2023-01-08T02:16:35.828Z,100870.47
2023-01-08T02:19:17.669Z,100864.09
2023-01-08T02:22:04.593Z,100857.22
2023-01-08T02:24:50.649Z,100852.66
2023-01-08T02:27:27.851Z,100850.31
2023-01-08T02:30:00.225Z,100845.06
2023-01-08T02:32:35.436Z,100841.16
2023-01-08T02:35:24.353Z,100850.19
2023-01-08T02:37:55.159Z,100840.22
2023-01-08T02:40:33.120Z,100834.94
2023-01-08T02:43:13.463Z,100828.28
2023-01-08T02:45:49.729Z,100823.03
2023-01-08T02:48:29.355Z,100837.25
2023-01-08T02:51:05.460Z,100831.13
2023-01-08T02:53:40.521Z,100731.66
2023-01-08T02:56:16.512Z,100809.75
2023-01-08T02:58:50.156Z,100835.31
2023-01-08T03:01:23.326Z,100808.38
2023-01-08T03:04:14.863Z,100828.19
2023-01-08T03:06:46.448Z,100806.81
2023-01-08T03:09:18.620Z,100824.19
2023-01-08T03:11:56.748Z,100830.53
2023-01-08T03:14:32.159Z,100823.19
2023-01-08T03:17:10.446Z,100820.97
2023-01-08T03:19:45.862Z,100815.09
2023-01-08T03:22:20.831Z,100818.31
2023-01-08T03:24:56.580Z,100813.91
2023-01-08T03:27:30.385Z,100801.75
2023-01-08T03:30:03.221Z,100766.41
2023-01-08T03:32:35.299Z,100806.03
2023-01-08T03:35:10.738Z,100795.34
2023-01-08T03:37:45.388Z,100797.88
2023-01-08T03:40:20.928Z,100793.16
2023-01-08T03:42:51.916Z,100794.31
2023-01-08T03:45:27.343Z,100798.41
2023-01-08T03:48:00.491Z,100708.38
2023-01-08T03:50:35.973Z,100797.56
2023-01-08T03:53:06.931Z,100793.63
2023-01-08T03:55:38.049Z,100797.78
2023-01-08T03:58:09.250Z,100773.03
2023-01-08T04:00:41.749Z,100795.50
2023-01-08T04:03:12.698Z,100774.94
2023-01-08T04:05:46.345Z,100788.75
2023-01-08T04:08:18.018Z,100779.22
2023-01-08T04:10:48.934Z,100781.72
2023-01-08T04:13:19.641Z,100786.56
2023-01-08T04:15:53.813Z,100783.44
2023-01-08T04:18:25.112Z,100778.94
2023-01-08T04:20:56.223Z,100771.38
2023-01-08T04:23:27.261Z,100759.06
2023-01-08T04:26:09.931Z,100772.25
2023-01-08T04:28:48.206Z,100774.78
2023-01-08T04:31:24.942Z,100707.09
2023-01-08T04:33:59.485Z,100773.19
2023-01-08T04:36:34.417Z,100779.66
2023-01-08T04:39:08.516Z,100780.06
2023-01-08T04:41:43.977Z,100771.81
2023-01-08T04:44:18.693Z,100778.13
2023-01-08T04:46:56.357Z,100769.91
2023-01-08T04:49:30.071Z,100772.78
2023-01-08T04:52:03.707Z,100759.09
2023-01-08T04:54:37.058Z,100769.53
2023-01-08T04:57:10.026Z,100765.34
2023-01-08T04:59:47.807Z,100762.00
2023-01-08T05:02:23.408Z,100754.47
2023-01-08T05:04:56.750Z,100718.31
2023-01-08T05:07:33.547Z,100751.13
2023-01-08T05:10:07.669Z,100696.91
2023-01-08T05:12:40.509Z,100744.78
2023-01-08T05:15:14.701Z,100713.38
2023-01-08T05:17:49.406Z,100756.03
2023-01-08T05:20:22.191Z,100757.84
2023-01-08T05:22:54.982Z,100754.81
2023-01-08T05:25:29.005Z,100748.31
2023-01-08T05:28:02.028Z,100753.66
2023-01-08T05:30:38.592Z,100762.09
2023-01-08T05:33:12.957Z,100735.78
2023-01-08T05:35:45.987Z,100759.00
2023-01-08T05:38:19.702Z,100761.97
2023-01-08T05:40:56.803Z,100765.09
2023-01-08T05:43:32.212Z,100768.44
2023-01-08T05:46:06.210Z,100761.00
2023-01-08T05:48:41.410Z,100761.97
2023-01-08T05:51:13.948Z,100762.84
2023-01-08T05:53:49.943Z,100765.41
2023-01-08T05:56:22.623Z,100765.34
2023-01-08T05:58:59.262Z,100764.81
2023-01-08T06:01:36.476Z,100771.63
2023-01-08T06:04:11.399Z,100763.03
2023-01-08T06:06:45.155Z,100773.22
2023-01-08T06:09:19.903Z,100754.25
2023-01-08T06:12:07.253Z,100759.59
2023-01-08T06:14:57.826Z,100761.63
2023-01-08T06:17:46.624Z,100759.13
2023-01-08T06:20:40.078Z,100753.84
2023-01-08T06:23:11.382Z,100763.69
2023-01-08T06:25:42.335Z,100759.78
2023-01-08T06:28:15.993Z,100683.16
2023-01-08T06:31:05.346Z,100756.31
2023-01-08T06:33:36.583Z,100758.66
2023-01-08T06:36:09.738Z,100764.97
2023-01-08T06:38:42.727Z,100710.09
2023-01-08T06:41:32.726Z,100767.72
2023-01-08T06:44:04.808Z,100768.31
2023-01-08T06:46:39.087Z,100770.84
2023-01-08T06:49:09.982Z,100777.47
2023-01-08T06:51:42.981Z,100785.78
2023-01-08T06:54:32.229Z,100768.13
2023-01-08T06:57:25.291Z,100771.47
2023-01-08T06:59:57.009Z,100764.22
2023-01-08T07:02:28.312Z,100751.34
2023-01-08T07:05:04.208Z,100768.31
2023-01-08T07:07:36.473Z,100769.25
2023-01-08T07:10:08.185Z,100777.84
2023-01-08T07:12:38.739Z,100776.47
2023-01-08T07:15:27.203Z,100777.19
2023-01-08T07:17:58.019Z,100780.47
2023-01-08T07:20:28.591Z,100783.16
2023-01-08T07:23:04.842Z,100768.34
2023-01-08T07:25:53.679Z,100783.88
2023-01-08T07:28:24.442Z,100761.25
2023-01-08T07:30:56.007Z,100775.81
2023-01-08T07:33:26.752Z,100787.25
2023-01-08T07:35:57.584Z,100779.38
2023-01-08T07:38:30.294Z,100772.78
2023-01-08T07:41:01.130Z,100786.97
2023-01-08T07:43:32.319Z,100794.81
2023-01-08T07:46:05.790Z,100794.47
2023-01-08T07:48:36.502Z,100795.56
2023-01-08T07:54:20.301Z,100798.75
2023-01-08T07:56:51.025Z,100799.63
2023-01-08T07:59:39.465Z,100802.69
2023-01-08T08:03:09.507Z,100806.00
2023-01-08T08:09:24.217Z,100799.13
2023-01-08T08:27:24.709Z,100799.81
2023-01-08T08:29:55.200Z,100797.63
2023-01-08T08:32:32.847Z,100683.66
2023-01-08T08:35:21.732Z,100785.72
2023-01-08T08:37:53.670Z,100747.91
2023-01-08T08:40:29.668Z,100771.09
2023-01-08T08:43:10.617Z,100783.69
2023-01-08T08:46:57.422Z,100777.88
2023-01-08T08:49:28.152Z,100777.59
2023-01-08T08:52:10.838Z,100765.75
2023-01-08T08:54:42.591Z,100758.66
2023-01-08T08:57:13.488Z,100774.00
2023-01-08T08:59:45.746Z,100724.84
2023-01-08T09:02:16.522Z,100779.59
2023-01-08T09:04:52.223Z,100783.97
2023-01-08T09:07:41.272Z,100775.97
2023-01-08T09:10:12.593Z,100702.19
2023-01-08T09:12:43.445Z,100769.53
2023-01-08T09:22:43.032Z,100759.44
2023-01-08T09:25:16.417Z,100742.00
2023-01-08T09:27:52.209Z,100657.28
2023-01-08T09:30:24.185Z,100760.09
2023-01-08T09:33:02.880Z,100771.94
2023-01-08T09:35:43.951Z,100768.97
2023-01-08T09:38:22.041Z,100774.19
2023-01-08T09:41:46.075Z,100766.72
2023-01-08T09:44:23.655Z,100767.22
2023-01-08T09:46:57.525Z,100759.31
2023-01-08T09:49:40.346Z,100763.19
2023-01-08T09:52:15.443Z,100756.47
2023-01-08T09:55:00.929Z,100681.63
2023-01-08T09:58:04.469Z,100749.28
2023-01-08T10:00:41.822Z,100757.41
2023-01-08T10:03:27.656Z,100755.66
2023-01-08T10:06:12.036Z,100758.38
2023-01-08T10:08:43.028Z,100757.00
2023-01-08T10:11:17.903Z,100651.72
2023-01-08T10:13:53.186Z,100705.78
2023-01-08T10:16:31.343Z,100743.63
2023-01-08T10:19:07.082Z,100741.56
2023-01-08T10:21:46.213Z,100739.97
2023-01-08T10:24:20.214Z,100637.22
2023-01-08T10:26:57.520Z,100733.66
2023-01-08T10:29:43.210Z,100726.09
2023-01-08T10:32:21.347Z,100732.50
2023-01-08T10:34:58.951Z,100608.09
2023-01-08T10:37:32.043Z,100682.19
2023-01-08T10:40:12.078Z,100732.16
2023-01-08T10:43:32.204Z,100729.50
2023-01-08T10:46:18.123Z,100693.59
2023-01-08T10:48:55.884Z,100722.31
2023-01-08T10:51:28.293Z,100723.16
2023-01-08T10:54:02.106Z,100718.19
2023-01-08T10:56:55.384Z,100710.28
2023-01-08T10:59:29.575Z,100714.78
2023-01-08T11:02:06.006Z,100717.31
2023-01-08T11:11:55.091Z,100711.19
2023-01-08T11:14:30.914Z,100696.00
2023-01-08T11:17:05.308Z,100694.25
2023-01-08T11:19:38.333Z,100653.56
2023-01-08T11:22:20.868Z,100585.63
2023-01-08T11:24:58.922Z,100656.50
2023-01-08T11:27:33.650Z,100666.47
2023-01-08T11:30:14.193Z,100609.13
2023-01-08T11:33:22.268Z,100634.66
2023-01-08T11:36:03.590Z,100680.00
2023-01-08T11:38:35.514Z,100683.84
2023-01-08T11:41:21.147Z,100692.22
2023-01-08T11:44:43.079Z,100680.13
2023-01-08T11:47:21.189Z,100686.66
2023-01-08T11:50:12.820Z,100662.50
2023-01-08T11:52:52.756Z,100656.81
2023-01-08T11:55:42.803Z,100674.53
2023-01-08T11:58:25.497Z,100684.88
2023-01-08T12:01:14.160Z,100676.28
2023-01-08T12:03:49.889Z,100591.63
2023-01-08T12:06:31.349Z,100662.34
2023-01-08T12:09:21.562Z,100673.56
2023-01-08T12:11:59.611Z,100658.34
2023-01-08T12:14:58.972Z,100662.34
2023-01-08T12:17:50.639Z,100651.75
2023-01-08T12:20:32.446Z,100665.94
2023-01-08T12:23:16.335Z,100678.91
2023-01-08T12:26:01.895Z,100671.16
2023-01-08T12:28:53.341Z,100679.25
2023-01-08T12:32:01.849Z,100684.84
2023-01-08T12:34:42.389Z,100656.22
2023-01-08T12:37:24.077Z,100681.53
2023-01-08T12:40:08.071Z,100674.53
2023-01-08T12:42:47.250Z,100676.66
2023-01-08T12:45:27.447Z,100616.03
2023-01-08T12:48:37.436Z,100672.25
2023-01-08T12:51:18.837Z,100597.50
2023-01-08T12:54:03.404Z,100637.13
2023-01-08T12:56:41.384Z,100652.75
2023-01-08T12:59:25.955Z,100566.72
2023-01-08T13:02:05.795Z,100643.09
2023-01-08T13:04:44.289Z,100645.59
2023-01-08T13:07:22.355Z,100639.31
2023-01-08T13:10:01.838Z,100592.63
2023-01-08T13:12:38.347Z,100637.91
2023-01-08T13:15:20.032Z,100629.88
2023-01-08T13:17:52.484Z,100635.63
2023-01-08T13:20:28.786Z,100627.59
2023-01-08T13:23:12.058Z,100625.97
2023-01-08T13:25:59.958Z,100633.66
2023-01-08T13:28:45.224Z,100634.66
2023-01-08T13:31:33.798Z,100638.28
2023-01-08T13:34:18.298Z,100633.13
2023-01-08T13:37:02.911Z,100622.03
2023-01-08T13:39:39.194Z,100566.97
2023-01-08T13:42:32.423Z,100618.75
2023-01-08T13:45:12.340Z,100501.13
2023-01-08T13:47:47.676Z,100617.16
2023-01-08T13:50:22.928Z,100607.22
2023-01-08T13:53:00.914Z,100606.44
2023-01-08T13:55:38.861Z,100598.28
2023-01-08T13:58:19.120Z,100604.72
2023-01-08T14:04:39.015Z,100593.38
2023-01-08T14:07:40.448Z,100458.91
2023-01-08T14:10:23.707Z,100588.56
2023-01-08T14:13:25.768Z,100577.25
2023-01-08T14:16:22.899Z,100582.53
2023-01-08T14:26:14.428Z,100527.19
2023-01-08T14:32:14.435Z,100570.41
2023-01-08T14:35:02.364Z,100575.91
2023-01-08T14:38:09.499Z,100449.63
2023-01-08T14:41:22.928Z,100561.69
2023-01-08T14:44:49.517Z,100562.06
2023-01-08T14:48:01.446Z,100555.59
2023-01-08T14:54:06.792Z,100548.63
2023-01-08T15:00:41.964Z,100475.63
2023-01-08T15:03:36.404Z,100481.22
2023-01-08T15:06:12.268Z,100441.06
2023-01-08T15:09:16.025Z,100526.84
2023-01-08T15:12:02.353Z,100520.88
2023-01-08T15:15:24.034Z,100512.72
2023-01-08T15:18:23.585Z,100515.34
2023-01-08T15:24:16.229Z,100513.88
2023-01-08T15:27:02.178Z,100517.66
2023-01-08T15:30:10.969Z,100511.09
2023-01-08T15:33:27.933Z,100512.19
2023-01-08T15:36:31.413Z,100520.00
2023-01-08T15:39:34.981Z,100524.91
2023-01-08T15:42:56.858Z,100523.47
2023-01-08T15:46:18.372Z,100523.97
2023-01-08T15:49:29.554Z,100521.50
2023-01-08T15:52:48.376Z,100518.38
2023-01-08T15:55:47.110Z,100515.00
2023-01-08T15:58:37.390Z,100514.06
2023-01-08T16:01:47.772Z,100513.28
2023-01-08T16:04:39.949Z,100523.47
2023-01-08T16:11:06.553Z,100459.56
2023-01-08T16:18:13.311Z,100500.47
2023-01-08T16:20:49.143Z,100502.63
2023-01-08T16:23:28.122Z,100495.22
2023-01-08T16:37:32.669Z,100486.16
2023-01-08T16:41:08.277Z,100485.09
2023-01-08T16:44:04.298Z,100489.28
2023-01-08T16:47:18.165Z,100484.00
2023-01-08T16:50:08.195Z,100486.91
2023-01-08T16:53:13.625Z,100479.22
2023-01-08T16:56:33.914Z,100452.72
2023-01-08T16:59:24.280Z,100473.34
2023-01-08T17:02:17.327Z,100471.16
2023-01-08T17:08:48.590Z,100464.31
2023-01-08T17:11:31.750Z,100470.59
2023-01-08T17:20:24.113Z,100474.16
2023-01-08T17:27:23.145Z,100463.16
2023-01-08T17:29:58.802Z,100474.72
2023-01-08T17:32:47.311Z,100470.06
2023-01-08T17:39:02.767Z,100418.50
2023-01-08T17:41:50.007Z,100457.31
2023-01-08T17:44:33.235Z,100472.25
2023-01-08T17:47:22.743Z,100404.78
2023-01-08T17:50:02.870Z,100459.91
2023-01-08T17:56:41.590Z,100460.88
2023-01-08T17:59:19.595Z,100462.13
2023-01-08T18:01:51.211Z,100475.00
2023-01-08T18:05:09.973Z,100460.06
2023-01-08T18:08:11.509Z,100459.41
2023-01-08T18:17:54.406Z,100460.94
2023-01-08T18:20:45.411Z,100312.19
2023-01-08T18:26:54.804Z,100456.63
2023-01-08T18:29:39.558Z,100453.50
2023-01-08T18:32:29.738Z,100448.84
2023-01-08T18:35:16.479Z,100453.56
2023-01-08T18:37:59.891Z,100449.75
2023-01-08T18:40:42.236Z,100445.47
2023-01-08T18:47:30.215Z,100452.00
2023-01-08T18:50:32.247Z,100454.53
2023-01-08T18:56:57.212Z,100456.31
2023-01-08T19:00:14.200Z,100457.84
2023-01-08T19:02:47.714Z,100449.91
2023-01-08T19:05:23.048Z,100447.47
2023-01-08T19:07:56.428Z,100426.09
2023-01-08T19:10:27.170Z,100447.44
2023-01-08T19:12:57.913Z,100450.72
2023-01-08T19:15:28.521Z,100452.22
2023-01-08T19:18:01.461Z,100363.47
2023-01-08T19:20:32.213Z,100441.16
2023-01-08T19:23:02.883Z,100429.75
2023-01-08T19:25:34.618Z,100416.03
2023-01-08T19:28:05.320Z,100427.81
2023-01-08T19:30:38.760Z,100393.34
2023-01-08T19:33:13.140Z,100428.00
2023-01-08T19:35:44.584Z,100420.00
2023-01-08T19:38:15.896Z,100408.63
2023-01-08T19:40:46.792Z,100412.06
2023-01-08T19:43:37.313Z,100410.84
2023-01-08T19:46:08.666Z,100416.50
2023-01-08T19:48:43.260Z,100374.47
2023-01-08T19:51:18.296Z,100399.69
2023-01-08T19:53:49.007Z,100415.06
2023-01-08T19:56:19.733Z,100376.34
2023-01-08T19:58:55.159Z,100403.38
2023-01-08T20:01:29.540Z,100379.69
2023-01-08T20:04:02.047Z,100408.56
2023-01-08T20:06:32.691Z,100406.72
2023-01-08T20:09:04.858Z,100405.13
2023-01-08T20:11:35.517Z,100394.06
2023-01-08T20:14:08.325Z,100398.44
2023-01-08T20:16:54.914Z,100406.00
2023-01-08T20:19:29.483Z,100416.81
2023-01-08T20:22:01.598Z,100429.78
2023-01-08T20:24:32.381Z,100434.28
2023-01-08T20:27:04.091Z,100442.31
2023-01-08T20:29:39.851Z,100444.16
2023-01-08T20:32:10.616Z,100415.59
2023-01-08T20:34:43.197Z,100441.91
2023-01-08T20:37:13.836Z,100413.09
2023-01-08T20:39:56.294Z,100437.19
2023-01-08T20:42:34.175Z,100445.31
2023-01-08T20:45:07.358Z,100443.22
2023-01-08T20:47:38.742Z,100425.75
2023-01-08T20:50:19.751Z,100439.31
2023-01-08T20:52:51.401Z,100430.22
2023-01-08T20:55:22.835Z,100435.44
2023-01-08T20:57:56.702Z,100388.72
2023-01-08T21:00:27.693Z,100431.84
2023-01-08T21:02:58.474Z,100441.59
2023-01-08T21:05:31.072Z,100432.72
2023-01-08T21:08:01.672Z,100444.88
2023-01-08T21:10:32.326Z,100429.84
2023-01-08T21:13:03.433Z,100423.00
2023-01-08T21:15:34.432Z,100433.59
2023-01-08T21:18:05.025Z,100432.09
2023-01-08T21:20:37.915Z,100421.66
2023-01-08T21:23:08.597Z,100429.47
2023-01-08T21:25:39.258Z,100430.50
2023-01-08T21:28:09.865Z,100429.56
2023-01-08T21:30:40.585Z,100433.91
2023-01-08T21:33:11.265Z,100435.53
2023-01-08T21:35:43.417Z,100397.97
2023-01-08T21:38:14.052Z,100437.28
2023-01-08T21:40:44.679Z,100432.44
2023-01-08T21:43:32.072Z,100440.72
2023-01-08T21:46:05.064Z,100428.03
2023-01-08T21:48:35.666Z,100446.00
2023-01-08T21:51:28.319Z,100353.03
2023-01-08T21:53:58.628Z,100449.84
2023-01-08T21:56:30.061Z,100447.34
2023-01-08T21:59:00.602Z,100453.66
2023-01-08T22:01:31.522Z,100455.63
2023-01-08T22:04:02.317Z,100451.63
2023-01-08T22:06:35.643Z,100464.56
2023-01-08T22:09:15.089Z,100446.56
2023-01-08T22:11:48.993Z,100459.44
2023-01-08T22:14:19.509Z,100463.53
2023-01-08T22:16:50.132Z,100454.94
2023-01-08T22:19:20.539Z,100455.38
2023-01-08T22:21:52.780Z,100429.63
2023-01-08T22:24:23.447Z,100445.91
2023-01-08T22:26:54.021Z,100458.09
2023-01-08T22:29:24.720Z,100470.63
2023-01-08T22:31:55.376Z,100470.16
2023-01-08T22:34:26.123Z,100457.81
2023-01-08T22:36:58.367Z,100469.69
2023-01-08T22:39:29.104Z,100464.97
2023-01-08T22:42:00.061Z,100463.28
2023-01-08T22:44:30.658Z,100458.25
2023-01-08T22:47:03.530Z,100461.78
2023-01-08T22:49:34.412Z,100461.16
2023-01-08T22:52:06.801Z,100415.06
2023-01-08T22:54:37.555Z,100446.47
2023-01-08T22:57:08.225Z,100405.47
2023-01-08T22:59:57.092Z,100456.75
2023-01-08T23:02:45.991Z,100450.50
2023-01-08T23:05:16.733Z,100452.50
2023-01-08T23:07:49.167Z,100415.50
2023-01-08T23:10:20.269Z,100325.69
2023-01-08T23:12:52.257Z,100446.56
2023-01-08T23:15:23.559Z,100432.00
2023-01-08T23:17:54.095Z,100441.03
2023-01-08T23:20:25.888Z,100439.53
2023-01-08T23:22:57.971Z,100431.91
2023-01-08T23:25:30.957Z,100437.78
2023-01-08T23:28:01.528Z,100439.78
2023-01-08T23:30:32.912Z,100438.28
2023-01-08T23:33:03.493Z,100438.81
2023-01-08T23:35:34.002Z,100447.59
2023-01-08T23:38:06.309Z,100430.75
2023-01-08T23:40:36.992Z,100433.66
2023-01-08T23:43:07.560Z,100441.31
2023-01-08T23:45:39.099Z,100385.41
2023-01-08T23:48:10.489Z,100431.75
2023-01-08T23:50:41.092Z,100425.50
2023-01-08T23:53:13.203Z,100434.44
2023-01-08T23:55:44.020Z,100433.66
2023-01-08T23:58:15.034Z,100423.50
